sensor_id;sensor_type;location;lat;lon;timestamp;temperature;humidity
43862;DHT22;29510;52.140;5.034;2022-12-29T00:08:16;10.80;99.90
43862;DHT22;29510;52.140;5.034;2022-12-29T00:18:17;10.90;99.90
43862;DHT22;29510;52.140;5.034;2022-12-29T00:28:18;10.90;99.90
43862;DHT22;29510;52.140;5.034;2022-12-29T00:38:41;11.10;99.90
43862;DHT22;29510;52.140;5.034;2022-12-29T00:49:08;11.10;99.90
43862;DHT22;29510;52.140;5.034;2022-12-29T00:59:27;11.20;99.90
43862;DHT22;29510;52.140;5.034;2022-12-29T01:09:28;11.30;99.90
43862;DHT22;29510;52.140;5.034;2022-12-29T01:19:48;11.00;99.90
43862;DHT22;29510;52.140;5.034;2022-12-29T01:29:49;10.80;99.90
43862;DHT22;29510;52.140;5.034;2022-12-29T01:39:50;10.60;99.90
43862;DHT22;29510;52.140;5.034;2022-12-29T01:49:55;10.60;99.90
43862;DHT22;29510;52.140;5.034;2022-12-29T02:00:01;10.60;99.90
43862;DHT22;29510;52.140;5.034;2022-12-29T02:10:04;10.60;99.90
43862;DHT22;29510;52.140;5.034;2022-12-29T02:20:32;10.70;99.90
43862;DHT22;29510;52.140;5.034;2022-12-29T02:30:57;10.80;99.90
43862;DHT22;29510;52.140;5.034;2022-12-29T02:41:17;10.80;99.90
43862;DHT22;29510;52.140;5.034;2022-12-29T02:51:26;10.70;99.90
43862;DHT22;29510;52.140;5.034;2022-12-29T03:12:45;10.70;99.90
43862;DHT22;29510;52.140;5.034;2022-12-29T03:23:07;10.80;99.90
43862;DHT22;29510;52.140;5.034;2022-12-29T03:33:12;10.60;99.90
43862;DHT22;29510;52.140;5.034;2022-12-29T03:43:14;10.50;99.90
43862;DHT22;29510;52.140;5.034;2022-12-29T03:53:16;10.40;99.90
43862;DHT22;29510;52.140;5.034;2022-12-29T04:03:17;10.40;99.90
43862;DHT22;29510;52.140;5.034;2022-12-29T04:13:18;10.40;99.90
43862;DHT22;29510;52.140;5.034;2022-12-29T04:23:19;10.40;99.90
43862;DHT22;29510;52.140;5.034;2022-12-29T04:33:20;10.40;99.90
43862;DHT22;29510;52.140;5.034;2022-12-29T04:43:21;10.40;99.90
43862;DHT22;29510;52.140;5.034;2022-12-29T04:53:23;10.50;99.90
43862;DHT22;29510;52.140;5.034;2022-12-29T05:03:24;10.40;99.90
43862;DHT22;29510;52.140;5.034;2022-12-29T05:13:25;10.20;99.90
43862;DHT22;29510;52.140;5.034;2022-12-29T05:23:26;10.00;99.90
43862;DHT22;29510;52.140;5.034;2022-12-29T05:33:27;9.90;99.90
43862;DHT22;29510;52.140;5.034;2022-12-29T05:43:28;9.70;99.90
43862;DHT22;29510;52.140;5.034;2022-12-29T05:53:29;9.60;99.90
43862;DHT22;29510;52.140;5.034;2022-12-29T06:03:30;9.50;99.90
43862;DHT22;29510;52.140;5.034;2022-12-29T06:13:31;9.70;99.90
43862;DHT22;29510;52.140;5.034;2022-12-29T06:23:32;9.80;99.90
43862;DHT22;29510;52.140;5.034;2022-12-29T06:33:33;9.60;99.90
43862;DHT22;29510;52.140;5.034;2022-12-29T06:43:34;9.20;99.90
43862;DHT22;29510;52.140;5.034;2022-12-29T06:53:38;9.30;99.90
43862;DHT22;29510;52.140;5.034;2022-12-29T07:03:41;9.40;99.90
43862;DHT22;29510;52.140;5.034;2022-12-29T07:13:43;9.50;99.90
43862;DHT22;29510;52.140;5.034;2022-12-29T07:23:44;9.50;99.90
43862;DHT22;29510;52.140;5.034;2022-12-29T07:33:46;9.30;99.90
43862;DHT22;29510;52.140;5.034;2022-12-29T07:43:47;9.10;99.90
43862;DHT22;29510;52.140;5.034;2022-12-29T07:53:49;9.20;99.90
43862;DHT22;29510;52.140;5.034;2022-12-29T08:03:50;9.20;99.90
43862;DHT22;29510;52.140;5.034;2022-12-29T08:13:51;9.40;99.90
43862;DHT22;29510;52.140;5.034;2022-12-29T08:23:52;9.60;99.90
43862;DHT22;29510;52.140;5.034;2022-12-29T08:33:53;9.80;99.90
43862;DHT22;29510;52.140;5.034;2022-12-29T08:43:54;9.80;99.90
43862;DHT22;29510;52.140;5.034;2022-12-29T08:53:55;9.70;99.90
43862;DHT22;29510;52.140;5.034;2022-12-29T09:03:56;9.50;99.90
43862;DHT22;29510;52.140;5.034;2022-12-29T09:13:57;9.50;99.90
43862;DHT22;29510;52.140;5.034;2022-12-29T09:23:58;9.30;99.90
43862;DHT22;29510;52.140;5.034;2022-12-29T09:33:59;9.00;99.90
43862;DHT22;29510;52.140;5.034;2022-12-29T09:44:26;9.00;99.90
43862;DHT22;29510;52.140;5.034;2022-12-29T09:55:23;8.90;99.90
43862;DHT22;29510;52.140;5.034;2022-12-29T10:05:56;8.80;99.90
43862;DHT22;29510;52.140;5.034;2022-12-29T10:16:09;8.90;99.90
43862;DHT22;29510;52.140;5.034;2022-12-29T10:26:19;9.00;99.90
43862;DHT22;29510;52.140;5.034;2022-12-29T10:36:29;9.10;99.90
43862;DHT22;29510;52.140;5.034;2022-12-29T10:46:35;9.10;99.90
43862;DHT22;29510;52.140;5.034;2022-12-29T10:56:52;9.30;99.90
43862;DHT22;29510;52.140;5.034;2022-12-29T11:06:54;9.50;99.90
43862;DHT22;29510;52.140;5.034;2022-12-29T11:17:01;9.60;99.90
43862;DHT22;29510;52.140;5.034;2022-12-29T11:37:28;10.00;99.90
43862;DHT22;29510;52.140;5.034;2022-12-29T11:47:31;10.10;99.90
43862;DHT22;29510;52.140;5.034;2022-12-29T11:57:34;10.30;99.90
43862;DHT22;29510;52.140;5.034;2022-12-29T12:07:44;10.30;99.90
43862;DHT22;29510;52.140;5.034;2022-12-29T12:28:00;10.00;99.90
43862;DHT22;29510;52.140;5.034;2022-12-29T12:59:37;10.20;99.90
43862;DHT22;29510;52.140;5.034;2022-12-29T13:09:36;10.30;99.90
43862;DHT22;29510;52.140;5.034;2022-12-29T13:19:53;10.40;99.90
43862;DHT22;29510;52.140;5.034;2022-12-29T13:30:03;10.40;99.90
43862;DHT22;29510;52.140;5.034;2022-12-29T13:40:14;10.30;99.90
43862;DHT22;29510;52.140;5.034;2022-12-29T13:50:22;10.30;99.90
43862;DHT22;29510;52.140;5.034;2022-12-29T14:00:26;10.20;99.90
43862;DHT22;29510;52.140;5.034;2022-12-29T14:10:38;10.20;99.90
43862;DHT22;29510;52.140;5.034;2022-12-29T14:20:53;9.70;99.90
43862;DHT22;29510;52.140;5.034;2022-12-29T14:30:59;9.30;99.90
43862;DHT22;29510;52.140;5.034;2022-12-29T14:51:38;8.40;99.90
43862;DHT22;29510;52.140;5.034;2022-12-29T15:01:45;8.50;99.90
43862;DHT22;29510;52.140;5.034;2022-12-29T15:11:58;8.60;99.90
43862;DHT22;29510;52.140;5.034;2022-12-29T15:22:02;8.80;99.90
43862;DHT22;29510;52.140;5.034;2022-12-29T15:52:46;9.00;99.90
43862;DHT22;29510;52.140;5.034;2022-12-29T16:02:48;9.10;99.90
43862;DHT22;29510;52.140;5.034;2022-12-29T16:12:49;9.10;99.90
43862;DHT22;29510;52.140;5.034;2022-12-29T16:22:56;9.10;99.90
43862;DHT22;29510;52.140;5.034;2022-12-29T16:33:02;9.00;99.90
43862;DHT22;29510;52.140;5.034;2022-12-29T16:43:04;8.90;99.90
43862;DHT22;29510;52.140;5.034;2022-12-29T16:53:06;8.80;99.90
43862;DHT22;29510;52.140;5.034;2022-12-29T17:03:17;8.70;99.90
43862;DHT22;29510;52.140;5.034;2022-12-29T17:13:18;8.50;99.90
43862;DHT22;29510;52.140;5.034;2022-12-29T17:23:19;8.40;99.90
43862;DHT22;29510;52.140;5.034;2022-12-29T17:33:20;8.30;99.90
43862;DHT22;29510;52.140;5.034;2022-12-29T17:43:21;8.20;99.90
43862;DHT22;29510;52.140;5.034;2022-12-29T17:53:27;8.10;99.90
43862;DHT22;29510;52.140;5.034;2022-12-29T18:03:34;8.10;99.90
43862;DHT22;29510;52.140;5.034;2022-12-29T18:13:35;8.10;99.90
43862;DHT22;29510;52.140;5.034;2022-12-29T18:23:36;8.00;99.90
43862;DHT22;29510;52.140;5.034;2022-12-29T18:33:37;7.90;99.90
43862;DHT22;29510;52.140;5.034;2022-12-29T18:43:38;8.00;99.90
43862;DHT22;29510;52.140;5.034;2022-12-29T18:53:39;7.90;99.90
43862;DHT22;29510;52.140;5.034;2022-12-29T19:03:40;7.80;99.90
43862;DHT22;29510;52.140;5.034;2022-12-29T19:13:41;7.90;99.90
43862;DHT22;29510;52.140;5.034;2022-12-29T19:23:42;7.80;99.90
43862;DHT22;29510;52.140;5.034;2022-12-29T19:33:43;7.80;99.90
43862;DHT22;29510;52.140;5.034;2022-12-29T19:43:44;7.80;99.90
43862;DHT22;29510;52.140;5.034;2022-12-29T19:53:45;7.80;99.90
43862;DHT22;29510;52.140;5.034;2022-12-29T20:03:47;7.80;99.90
43862;DHT22;29510;52.140;5.034;2022-12-29T20:13:51;7.70;99.90
43862;DHT22;29510;52.140;5.034;2022-12-29T20:23:53;7.60;99.90
43862;DHT22;29510;52.140;5.034;2022-12-29T20:33:54;7.40;99.90
43862;DHT22;29510;52.140;5.034;2022-12-29T20:43:56;7.50;99.90
43862;DHT22;29510;52.140;5.034;2022-12-29T20:53:57;7.60;99.90
43862;DHT22;29510;52.140;5.034;2022-12-29T21:03:58;7.60;99.90
43862;DHT22;29510;52.140;5.034;2022-12-29T21:13:59;7.70;99.90
43862;DHT22;29510;52.140;5.034;2022-12-29T21:24:00;7.60;99.90
43862;DHT22;29510;52.140;5.034;2022-12-29T21:34:05;7.50;99.90
43862;DHT22;29510;52.140;5.034;2022-12-29T21:44:07;7.40;99.90
43862;DHT22;29510;52.140;5.034;2022-12-29T21:54:27;7.30;99.90
43862;DHT22;29510;52.140;5.034;2022-12-29T22:04:48;7.30;99.90
43862;DHT22;29510;52.140;5.034;2022-12-29T22:15:07;7.20;99.90
43862;DHT22;29510;52.140;5.034;2022-12-29T22:25:08;7.10;99.90
43862;DHT22;29510;52.140;5.034;2022-12-29T22:35:11;7.10;99.90
43862;DHT22;29510;52.140;5.034;2022-12-29T22:45:12;7.00;99.90
43862;DHT22;29510;52.140;5.034;2022-12-29T22:55:13;6.90;99.90
43862;DHT22;29510;52.140;5.034;2022-12-29T23:05:14;6.80;99.90
43862;DHT22;29510;52.140;5.034;2022-12-29T23:15:15;6.80;99.90
43862;DHT22;29510;52.140;5.034;2022-12-29T23:25:16;6.60;99.90
43862;DHT22;29510;52.140;5.034;2022-12-29T23:35:17;6.50;99.90
43862;DHT22;29510;52.140;5.034;2022-12-29T23:45:18;6.40;99.90
43862;DHT22;29510;52.140;5.034;2022-12-29T23:55:20;6.40;99.90
